createdAt,value
2017-04-23T00:00:01.493Z,76.68
2017-04-23T00:00:42.164Z,76.87
2017-04-23T00:01:22.829Z,76.97
2017-04-23T00:02:04.490Z,76.87
2017-04-23T00:02:45.018Z,76.59
2017-04-23T00:03:25.669Z,76.5
2017-04-23T00:04:06.329Z,76.68
2017-04-23T00:04:46.869Z,76.5
2017-04-23T00:05:32.043Z,77.16
2017-04-23T00:06:13.707Z,76.5
2017-04-23T00:06:54.464Z,76.78
2017-04-23T00:07:35.147Z,76.78
2017-04-23T00:08:15.870Z,76.87
2017-04-23T00:08:56.537Z,77.25
2017-04-23T00:09:37.282Z,76.68
2017-04-23T00:10:18.963Z,77.25
2017-04-23T00:10:59.713Z,77.25
2017-04-23T00:11:40.272Z,76.97
2017-04-23T00:12:21.963Z,77.45
2017-04-23T00:13:02.647Z,77.06
2017-04-23T00:13:44.391Z,77.25
2017-04-23T00:14:24.901Z,77.16
2017-04-23T00:15:07.565Z,77.06
2017-04-23T00:15:49.512Z,77.06
2017-04-23T00:16:31.281Z,77.25
2017-04-23T00:17:12.696Z,77.16
2017-04-23T00:17:54.824Z,76.97
2017-04-23T00:18:39.946Z,76.87
2017-04-23T00:19:21.689Z,77.06
2017-04-23T00:20:03.462Z,77.16
2017-04-23T00:20:44.818Z,77.06
2017-04-23T00:21:27.062Z,76.78
2017-04-23T00:22:09.012Z,77.64
2017-04-23T00:22:49.565Z,77.73
2017-04-23T00:23:33.518Z,76.87
2017-04-23T00:24:18.216Z,77.73
2017-04-23T00:25:03.907Z,77.64
2017-04-23T00:25:44.660Z,77.45
2017-04-23T00:26:25.382Z,76.87
2017-04-23T00:27:08.374Z,77.45
2017-04-23T00:27:49.035Z,76.87
2017-04-23T00:28:29.692Z,76.87
2017-04-23T00:29:10.345Z,76.97
2017-04-23T00:29:50.979Z,77.54
2017-04-23T00:30:35.037Z,77.45
2017-04-23T00:31:15.827Z,77.54
2017-04-23T00:31:59.822Z,77.45
2017-04-23T00:32:40.395Z,77.35
2017-04-23T00:33:21.056Z,77.35
2017-04-23T00:34:01.680Z,77.54
2017-04-23T00:34:42.225Z,78.02
2017-04-23T00:35:23.337Z,78.02
2017-04-23T00:36:03.815Z,77.06
2017-04-23T00:36:45.213Z,77.64
2017-04-23T00:37:25.959Z,77.25
2017-04-23T00:38:06.960Z,77.73
2017-04-23T00:38:47.985Z,76.97
2017-04-23T00:39:28.796Z,77.16
2017-04-23T00:40:09.389Z,77.25
2017-04-23T00:40:49.973Z,77.92
2017-04-23T00:41:30.511Z,77.06
2017-04-23T00:42:11.247Z,78.02
2017-04-23T00:42:51.819Z,77.92
2017-04-23T00:43:32.347Z,77.35
2017-04-23T00:44:16.804Z,77.35
2017-04-23T00:44:57.821Z,77.45
2017-04-23T00:45:38.398Z,77.83
2017-04-23T00:46:19.073Z,77.45
2017-04-23T00:46:59.687Z,78.02
2017-04-23T00:47:40.373Z,77.45
2017-04-23T00:48:21.184Z,77.16
2017-04-23T00:49:03.577Z,77.16
2017-04-23T00:49:44.154Z,77.45
2017-04-23T00:50:24.813Z,77.45
2017-04-23T00:51:05.484Z,77.54
2017-04-23T00:51:47.144Z,77.35
2017-04-23T00:52:27.792Z,77.73
2017-04-23T00:53:08.448Z,77.45
2017-04-23T00:53:49.087Z,77.92
2017-04-23T00:54:29.758Z,77.83
2017-04-23T00:55:10.412Z,77.73
2017-04-23T00:55:51.088Z,77.92
2017-04-23T00:56:31.716Z,78.11
2017-04-23T00:57:13.331Z,78.2
2017-04-23T00:57:53.914Z,78.2
2017-04-23T00:58:34.451Z,78.2
2017-04-23T00:59:15.039Z,77.92
2017-04-23T00:59:55.715Z,78.02
2017-04-23T01:00:36.325Z,77.92
2017-04-23T01:01:16.818Z,78.02
2017-04-23T01:01:57.443Z,78.02
2017-04-23T01:02:38.078Z,78.2
2017-04-23T01:03:18.597Z,78.3
2017-04-23T01:03:59.200Z,78.2
2017-04-23T01:04:39.774Z,78.11
2017-04-23T01:05:20.380Z,78.2
2017-04-23T01:06:00.915Z,78.11
2017-04-23T01:06:41.519Z,78.02
2017-04-23T01:07:22.191Z,77.92
2017-04-23T01:08:02.812Z,78.2
2017-04-23T01:08:43.477Z,78.02
2017-04-23T01:09:24.123Z,78.02
2017-04-23T01:10:04.763Z,78.2
2017-04-23T01:10:45.486Z,78.2
2017-04-23T01:11:26.087Z,78.2
2017-04-23T01:12:06.745Z,78.2
2017-04-23T01:12:47.394Z,78.49
2017-04-23T01:13:27.949Z,78.58
2017-04-23T01:14:08.590Z,78.11
2017-04-23T01:14:49.232Z,78.58
2017-04-23T01:15:29.897Z,78.58
2017-04-23T01:16:10.544Z,78.3
2017-04-23T01:16:51.140Z,78.49
2017-04-23T01:17:32.747Z,78.39
2017-04-23T01:18:13.275Z,78.3
2017-04-23T01:18:53.879Z,77.92
2017-04-23T01:19:34.480Z,78.02
2017-04-23T01:20:16.080Z,78.11
2017-04-23T01:20:56.630Z,78.96
2017-04-23T01:21:37.307Z,78.77
2017-04-23T01:22:17.932Z,78.77
2017-04-23T01:22:59.348Z,78.77
2017-04-23T01:23:40.027Z,78.39
2017-04-23T01:24:20.614Z,78.77
2017-04-23T01:25:01.181Z,78.96
2017-04-23T01:25:41.709Z,78.96
2017-04-23T01:26:22.369Z,79.06
2017-04-23T01:27:03.017Z,79.06
2017-04-23T01:27:43.671Z,79.06
2017-04-23T01:28:24.322Z,79.06
2017-04-23T01:29:04.980Z,78.92
2017-04-23T01:29:46.347Z,79.3
2017-04-23T01:30:27.001Z,79.39
2017-04-23T01:31:07.664Z,79.49
2017-04-23T01:31:48.196Z,79.49
2017-04-23T01:32:28.880Z,79.49
2017-04-23T01:33:09.462Z,79.21
2017-04-23T01:33:50.069Z,79.11
2017-04-23T01:34:30.580Z,79.11
2017-04-23T01:35:12.130Z,79.21
2017-04-23T01:35:52.814Z,79.39
2017-04-23T01:36:33.488Z,79.3
2017-04-23T01:37:14.149Z,79.21
2017-04-23T01:37:54.701Z,79.68
2017-04-23T01:38:35.355Z,80.25
2017-04-23T01:39:16.018Z,79.96
2017-04-23T01:39:56.675Z,79.96
2017-04-23T01:40:37.304Z,79.68
2017-04-23T01:41:17.979Z,79.77
2017-04-23T01:41:58.495Z,79.77
2017-04-23T01:42:48.755Z,80.15
2017-04-23T01:43:29.420Z,80.15
2017-04-23T01:44:10.068Z,80.06
2017-04-23T01:44:50.671Z,79.96
2017-04-23T01:45:31.224Z,79.96
2017-04-23T01:46:12.751Z,80.06
2017-04-23T01:46:53.411Z,80.25
2017-04-23T01:47:34.109Z,79.96
2017-04-23T01:48:14.762Z,80.15
2017-04-23T01:48:55.411Z,79.96
2017-04-23T01:49:36.057Z,80.06
2017-04-23T01:50:16.750Z,80.34
2017-04-23T01:50:57.419Z,80.25
2017-04-23T01:51:38.119Z,80.82
2017-04-23T01:52:18.827Z,80.72
2017-04-23T01:52:59.544Z,80.63
2017-04-23T01:53:40.086Z,80.63
2017-04-23T01:54:20.761Z,80.44
2017-04-23T01:55:01.432Z,80.44
2017-04-23T01:55:42.139Z,80.15
2017-04-23T01:56:22.670Z,80.34
2017-04-23T01:57:03.351Z,80.63
2017-04-23T01:57:44.049Z,81.2
2017-04-23T01:58:24.753Z,80.82
2017-04-23T01:59:05.299Z,80.63
2017-04-23T01:59:45.969Z,80.53
2017-04-23T02:00:26.772Z,80.63
2017-04-23T02:01:07.465Z,81.01
2017-04-23T02:01:48.066Z,80.82
2017-04-23T02:02:28.697Z,80.82
2017-04-23T02:03:09.370Z,81.01
2017-04-23T02:03:50.064Z,81.01
2017-04-23T02:04:30.627Z,80.82
2017-04-23T02:05:11.412Z,81.2
2017-04-23T02:05:52.102Z,81.38
2017-04-23T02:06:32.619Z,81.29
2017-04-23T02:07:13.265Z,81.38
2017-04-23T02:07:53.983Z,81.29
2017-04-23T02:08:34.540Z,81.38
2017-04-23T02:09:15.204Z,81.38
2017-04-23T02:09:55.847Z,81.01
2017-04-23T02:10:36.395Z,81.01
2017-04-23T02:11:17.060Z,81.57
2017-04-23T02:11:57.699Z,81.67
2017-04-23T02:12:38.245Z,81.67
2017-04-23T02:13:18.914Z,81.53
2017-04-23T02:13:59.568Z,81.48
2017-04-23T02:14:40.869Z,81.82
2017-04-23T02:15:21.479Z,82.01
2017-04-23T02:16:02.131Z,81.92
2017-04-23T02:16:42.667Z,82.01
2017-04-23T02:17:23.346Z,81.92
2017-04-23T02:18:04.001Z,81.72
2017-04-23T02:18:44.527Z,81.63
2017-04-23T02:19:25.200Z,81.53
2017-04-23T02:20:05.841Z,82.2
2017-04-23T02:20:46.344Z,82.1
2017-04-23T02:21:26.955Z,82.2
2017-04-23T02:22:07.594Z,82.2
2017-04-23T02:22:48.136Z,82.01
2017-04-23T02:23:28.727Z,82.01
2017-04-23T02:24:09.350Z,82.76
2017-04-23T02:24:49.863Z,82.1
2017-04-23T02:25:30.669Z,82.29
2017-04-23T02:26:11.313Z,82.2
2017-04-23T02:26:51.963Z,82.1
2017-04-23T02:27:32.666Z,82.2
2017-04-23T02:28:13.364Z,81.82
2017-04-23T02:28:54.017Z,82.2
2017-04-23T02:29:34.666Z,82.2
2017-04-23T02:30:15.359Z,82.1
2017-04-23T02:30:55.971Z,82.1
2017-04-23T02:31:36.489Z,82.57
2017-04-23T02:32:17.094Z,82.29
2017-04-23T02:32:57.730Z,82.01
2017-04-23T02:33:38.286Z,82.29
2017-04-23T02:34:18.958Z,82.29
2017-04-23T02:34:59.582Z,82.2
2017-04-23T02:35:40.115Z,82.2
2017-04-23T02:36:20.801Z,82.29
2017-04-23T02:37:01.457Z,82.2
2017-04-23T02:37:41.968Z,82.29
2017-04-23T02:38:22.559Z,82.2
2017-04-23T02:39:03.110Z,82.29
2017-04-23T02:39:43.783Z,81.92
2017-04-23T02:40:24.453Z,82.29
2017-04-23T02:41:05.047Z,82.2
2017-04-23T02:41:45.611Z,82.1
2017-04-23T02:42:26.265Z,82.2
2017-04-23T02:43:06.958Z,82.29
2017-04-23T02:43:47.592Z,82.57
2017-04-23T02:44:28.109Z,81.92
2017-04-23T02:45:08.782Z,82.2
2017-04-23T02:45:49.503Z,81.92
2017-04-23T02:46:30.176Z,81.95
2017-04-23T02:47:10.830Z,82.67
2017-04-23T02:47:51.474Z,82.2
2017-04-23T02:48:32.135Z,82.33
2017-04-23T02:49:12.802Z,82.2
2017-04-23T02:49:53.465Z,82.24
2017-04-23T02:50:34.087Z,82.24
2017-04-23T02:51:14.767Z,82.14
2017-04-23T02:51:55.293Z,82.33
2017-04-23T02:52:35.963Z,82.24
2017-04-23T02:53:16.631Z,82.24
2017-04-23T02:53:57.276Z,82.24
2017-04-23T02:54:37.980Z,82.24
2017-04-23T02:55:18.679Z,82.43
2017-04-23T02:55:59.341Z,82.33
2017-04-23T02:56:40.019Z,82.24
2017-04-23T02:57:20.680Z,82.62
2017-04-23T02:58:01.378Z,82.33
2017-04-23T02:58:41.890Z,82.24
2017-04-23T02:59:22.491Z,82.05
2017-04-23T03:00:03.184Z,82.33
2017-04-23T03:00:43.885Z,81.95
2017-04-23T03:01:24.402Z,81.95
2017-04-23T03:02:05.114Z,82.33
2017-04-23T03:02:45.802Z,82.24
2017-04-23T03:03:26.511Z,81.76
2017-04-23T03:04:07.052Z,82.52
2017-04-23T03:04:47.651Z,82.05
2017-04-23T03:05:28.315Z,82.24
2017-04-23T03:06:09.019Z,82.05
2017-04-23T03:06:49.527Z,82.24
2017-04-23T03:07:30.240Z,82.43
2017-04-23T03:08:10.940Z,81.86
2017-04-23T03:08:51.632Z,82.05
2017-04-23T03:09:32.164Z,82.05
2017-04-23T03:10:12.851Z,81.67
2017-04-23T03:10:53.560Z,82.05
2017-04-23T03:11:34.241Z,82.43
2017-04-23T03:12:14.837Z,81.86
2017-04-23T03:12:56.368Z,82.14
2017-04-23T03:13:37.091Z,82.24
2017-04-23T03:14:17.774Z,82.33
2017-04-23T03:14:58.286Z,82.33
2017-04-23T03:15:39.010Z,82.05
2017-04-23T03:16:19.694Z,82.24
2017-04-23T03:17:00.386Z,82.14
2017-04-23T03:17:41.040Z,82.24
2017-04-23T03:18:21.696Z,82.24
2017-04-23T03:19:02.343Z,82.14
2017-04-23T03:19:42.997Z,82.43
2017-04-23T03:20:23.654Z,82.24
2017-04-23T03:21:05.327Z,82.24
2017-04-23T03:21:45.979Z,81.95
2017-04-23T03:22:26.627Z,82.43
2017-04-23T03:23:07.194Z,82.14
2017-04-23T03:23:47.836Z,82.33
2017-04-23T03:24:28.483Z,82.14
2017-04-23T03:25:09.144Z,82.43
2017-04-23T03:25:49.800Z,82.43
2017-04-23T03:26:30.466Z,82.43
2017-04-23T03:27:10.998Z,82.62
2017-04-23T03:27:51.668Z,82.52
2017-04-23T03:28:32.377Z,82.33
2017-04-23T03:29:13.058Z,82.52
2017-04-23T03:29:53.575Z,82.71
2017-04-23T03:30:34.262Z,83.09
2017-04-23T03:31:14.980Z,82.81
2017-04-23T03:31:55.680Z,82.9
2017-04-23T03:32:36.390Z,82.9
2017-04-23T03:33:17.088Z,83.05
2017-04-23T03:33:57.821Z,83
2017-04-23T03:34:38.519Z,83.33
2017-04-23T03:35:19.156Z,83.43
2017-04-23T03:35:59.825Z,83.33
2017-04-23T03:36:40.477Z,82.95
2017-04-23T03:37:21.164Z,83.14
2017-04-23T03:38:01.872Z,83.14
2017-04-23T03:38:42.524Z,83.05
2017-04-23T03:39:23.197Z,83.05
2017-04-23T03:40:03.830Z,83.14
2017-04-23T03:40:44.513Z,83.24
2017-04-23T03:41:25.157Z,82.95
2017-04-23T03:42:05.787Z,82.95
2017-04-23T03:42:46.446Z,83.14
2017-04-23T03:43:27.094Z,83.14
2017-04-23T03:44:07.745Z,83.24
2017-04-23T03:44:48.400Z,83.52
2017-04-23T03:45:29.095Z,83.43
2017-04-23T03:46:09.842Z,83.52
2017-04-23T03:46:50.461Z,83.62
2017-04-23T03:47:31.126Z,83.43
2017-04-23T03:48:11.763Z,83.43
2017-04-23T03:48:52.433Z,83.43
2017-04-23T03:49:33.069Z,83.33
2017-04-23T03:50:13.727Z,83.43
2017-04-23T03:50:54.373Z,83.24
2017-04-23T03:51:35.031Z,83.47
2017-04-23T03:52:15.685Z,83.33
2017-04-23T03:52:56.340Z,83.56
2017-04-23T03:53:37.016Z,83.56
2017-04-23T03:54:17.659Z,83.47
2017-04-23T03:54:58.287Z,83.14
2017-04-23T03:55:40.027Z,83.09
2017-04-23T03:56:20.619Z,83.56
2017-04-23T03:57:01.276Z,83.47
2017-04-23T03:57:41.891Z,83.43
2017-04-23T03:58:22.566Z,83.56
2017-04-23T03:59:03.110Z,83.47
2017-04-23T03:59:43.791Z,83.47
2017-04-23T04:00:25.540Z,83.47
2017-04-23T04:01:06.422Z,83.47
2017-04-23T04:01:46.963Z,83.47
2017-04-23T04:02:27.687Z,83.75
2017-04-23T04:03:08.442Z,83.66
2017-04-23T04:03:49.118Z,83.66
2017-04-23T04:04:29.642Z,83.37
2017-04-23T04:05:11.263Z,83.47
2017-04-23T04:05:51.956Z,83.37
2017-04-23T04:06:32.677Z,83.47
2017-04-23T04:07:13.205Z,83.56
2017-04-23T04:07:53.889Z,84.13
2017-04-23T04:08:34.589Z,84
2017-04-23T04:09:15.300Z,84.09
2017-04-23T04:09:55.850Z,84.09
2017-04-23T04:10:36.480Z,84.19
2017-04-23T04:11:17.182Z,84.19
2017-04-23T04:11:57.882Z,84
2017-04-23T04:12:38.528Z,84
2017-04-23T04:13:19.185Z,83.9
2017-04-23T04:13:59.842Z,84
2017-04-23T04:14:40.502Z,84
2017-04-23T04:15:21.145Z,83.81
2017-04-23T04:16:01.806Z,84
2017-04-23T04:16:42.450Z,84
2017-04-23T04:17:23.112Z,84.38
2017-04-23T04:18:03.667Z,84.28
2017-04-23T04:18:44.302Z,84.47
2017-04-23T04:19:25.060Z,84.38
2017-04-23T04:20:05.719Z,84.28
2017-04-23T04:20:46.381Z,84.28
2017-04-23T04:21:27.036Z,84.19
2017-04-23T04:22:07.788Z,84.19
2017-04-23T04:22:48.441Z,84.19
2017-04-23T04:23:29.283Z,84.28
2017-04-23T04:24:09.939Z,84.47
2017-04-23T04:24:50.601Z,84.38
2017-04-23T04:25:31.257Z,84.28
2017-04-23T04:26:11.903Z,84.28
2017-04-23T04:26:52.548Z,84.23
2017-04-23T04:27:33.276Z,84.38
2017-04-23T04:28:13.984Z,84.23
2017-04-23T04:28:54.644Z,84.13
2017-04-23T04:29:35.306Z,84.23
2017-04-23T04:30:16.058Z,84.04
2017-04-23T04:30:56.819Z,84.04
2017-04-23T04:31:37.582Z,83.94
2017-04-23T04:32:18.196Z,84.04
2017-04-23T04:32:58.945Z,83.94
2017-04-23T04:33:39.457Z,84.04
2017-04-23T04:34:20.161Z,84.04
2017-04-23T04:35:00.901Z,84.13
2017-04-23T04:35:41.416Z,84.04
2017-04-23T04:36:22.130Z,84.23
2017-04-23T04:37:02.868Z,83.47
2017-04-23T04:37:43.507Z,83.56
2017-04-23T04:38:24.170Z,83.56
2017-04-23T04:39:04.924Z,83.75
2017-04-23T04:39:45.579Z,83.56
2017-04-23T04:40:26.229Z,83.56
2017-04-23T04:41:06.992Z,83.56
2017-04-23T04:41:47.745Z,83.56
2017-04-23T04:42:28.450Z,83.09
2017-04-23T04:43:09.158Z,83.47
2017-04-23T04:43:49.829Z,83.37
2017-04-23T04:44:31.167Z,83.47
2017-04-23T04:45:11.857Z,83.28
2017-04-23T04:45:52.603Z,83.66
2017-04-23T04:46:33.268Z,83.75
2017-04-23T04:47:14.030Z,83.56
2017-04-23T04:47:54.748Z,83.09
2017-04-23T04:48:35.322Z,83
2017-04-23T04:49:16.079Z,83.09
2017-04-23T04:49:56.820Z,83.18
2017-04-23T04:50:37.489Z,83
2017-04-23T04:51:18.138Z,83.37
2017-04-23T04:51:58.885Z,83.47
2017-04-23T04:52:39.541Z,83.28
2017-04-23T04:53:20.276Z,83.18
2017-04-23T04:54:00.881Z,83
2017-04-23T04:54:41.497Z,83.23
2017-04-23T04:55:22.035Z,83
2017-04-23T04:56:02.602Z,83.13
2017-04-23T04:56:43.144Z,82.81
2017-04-23T04:57:23.681Z,83.23
2017-04-23T04:58:04.198Z,82.94
2017-04-23T04:58:44.805Z,83.23
2017-04-23T04:59:25.429Z,82.94
2017-04-23T05:00:05.945Z,82.94
2017-04-23T05:00:46.558Z,82.56
2017-04-23T05:01:27.184Z,82.47
2017-04-23T05:02:07.703Z,82.47
2017-04-23T05:02:48.313Z,82.28
2017-04-23T05:03:28.904Z,82.75
2017-04-23T05:04:09.518Z,82.47
2017-04-23T05:04:50.029Z,82.56
2017-04-23T05:05:30.608Z,82.37
2017-04-23T05:06:11.225Z,82.47
2017-04-23T05:06:51.811Z,82.66
2017-04-23T05:07:32.337Z,82.66
2017-04-23T05:08:12.923Z,82.47
2017-04-23T05:08:53.482Z,81.99
2017-04-23T05:09:34.121Z,82.28
2017-04-23T05:10:14.668Z,82.28
2017-04-23T05:10:55.255Z,82.18
2017-04-23T05:11:35.935Z,82.37
2017-04-23T05:12:16.517Z,82.28
2017-04-23T05:12:57.032Z,82.18
2017-04-23T05:13:37.636Z,82.47
2017-04-23T05:14:18.250Z,82.09
2017-04-23T05:14:58.775Z,82.18
2017-04-23T05:15:39.382Z,82.18
2017-04-23T05:16:20.032Z,81.99
2017-04-23T05:17:00.550Z,82.66
2017-04-23T05:17:41.137Z,82.56
2017-04-23T05:18:21.698Z,82.28
2017-04-23T05:19:02.340Z,82.09
2017-04-23T05:19:42.897Z,82.18
2017-04-23T05:20:23.537Z,82.09
2017-04-23T05:21:04.108Z,82.37
2017-04-23T05:21:44.752Z,82.28
2017-04-23T05:22:25.287Z,82.18
2017-04-23T05:23:05.852Z,82.09
2017-04-23T05:23:46.423Z,81.99
2017-04-23T05:24:27.075Z,81.9
2017-04-23T05:25:07.720Z,81.71
2017-04-23T05:25:48.382Z,81.81
2017-04-23T05:26:29.043Z,81.99
2017-04-23T05:27:09.668Z,81.99
2017-04-23T05:27:50.211Z,81.9
2017-04-23T05:28:30.776Z,81.52
2017-04-23T05:29:11.428Z,81.81
2017-04-23T05:29:52.066Z,81.43
2017-04-23T05:30:32.617Z,81.24
2017-04-23T05:31:13.178Z,81.56
2017-04-23T05:31:53.743Z,81.18
2017-04-23T05:32:34.310Z,81.37
2017-04-23T05:33:14.917Z,80.9
2017-04-23T05:33:55.437Z,80.71
2017-04-23T05:34:36.031Z,80.9
2017-04-23T05:35:16.612Z,80.62
2017-04-23T05:35:57.214Z,80.43
2017-04-23T05:36:37.726Z,80.43
2017-04-23T05:37:18.329Z,80.52
2017-04-23T05:37:58.929Z,80.43
2017-04-23T05:38:39.531Z,80.52
2017-04-23T05:39:20.044Z,80.71
2017-04-23T05:40:00.649Z,80.52
2017-04-23T05:40:41.253Z,80.33
2017-04-23T05:41:21.822Z,80.43
2017-04-23T05:42:02.325Z,80.04
2017-04-23T05:42:42.953Z,80.04
2017-04-23T05:43:23.578Z,80.33
2017-04-23T05:44:04.124Z,80.43
2017-04-23T05:44:44.684Z,80.14
2017-04-23T05:45:25.328Z,79.95
2017-04-23T05:46:05.863Z,79.85
2017-04-23T05:46:46.448Z,80.04
2017-04-23T05:47:27.093Z,80.04
2017-04-23T05:48:07.738Z,80.14
2017-04-23T05:48:48.397Z,79.95
2017-04-23T05:49:29.074Z,79.47
2017-04-23T05:50:10.716Z,79.38
2017-04-23T05:50:52.293Z,79.57
2017-04-23T05:51:32.959Z,79.57
2017-04-23T05:52:13.469Z,78.91
2017-04-23T05:52:54.084Z,78.91
2017-04-23T05:53:34.699Z,79
2017-04-23T05:54:15.221Z,79.1
2017-04-23T05:54:55.835Z,79
2017-04-23T05:55:36.455Z,78.81
2017-04-23T05:56:16.979Z,78.81
2017-04-23T05:57:02.791Z,78.95
2017-04-23T05:57:43.430Z,78.95
2017-04-23T05:58:23.931Z,78.38
2017-04-23T05:59:05.567Z,78.38
2017-04-23T05:59:46.205Z,78.47
2017-04-23T06:00:26.856Z,79.04
2017-04-23T06:01:07.379Z,78.28
2017-04-23T06:01:48.006Z,78.19
2017-04-23T06:02:28.566Z,78.19
2017-04-23T06:03:09.231Z,78.28
2017-04-23T06:03:49.870Z,78.09
2017-04-23T06:04:30.425Z,78.56
2017-04-23T06:05:10.999Z,78.09
2017-04-23T06:05:51.625Z,77.62
2017-04-23T06:06:32.286Z,77.62
2017-04-23T06:07:12.937Z,77.71
2017-04-23T06:07:53.586Z,77.52
2017-04-23T06:08:34.212Z,77.43
2017-04-23T06:09:19.571Z,77.33
2017-04-23T06:10:00.225Z,77.33
2017-04-23T06:10:40.899Z,77.24
2017-04-23T06:11:22.595Z,77.62
2017-04-23T06:12:03.312Z,77.24
2017-04-23T06:12:43.944Z,77.52
2017-04-23T06:13:24.459Z,77.52
2017-04-23T06:14:07.079Z,77.52
2017-04-23T06:14:47.586Z,77.71
2017-04-23T06:15:28.116Z,77.81
2017-04-23T06:16:08.803Z,77.81
2017-04-23T06:16:49.314Z,77.33
2017-04-23T06:17:30.912Z,77.52
2017-04-23T06:18:11.541Z,77.24
2017-04-23T06:18:52.187Z,77.43
2017-04-23T06:19:32.861Z,77.24
2017-04-23T06:20:13.515Z,77.52
2017-04-23T06:20:55.286Z,77.05
2017-04-23T06:21:36.900Z,77.52
2017-04-23T06:22:17.486Z,77.33
2017-04-23T06:22:58.108Z,77.24
2017-04-23T06:23:39.711Z,77.33
2017-04-23T06:24:20.265Z,77.33
2017-04-23T06:25:01.904Z,76.76
2017-04-23T06:25:42.548Z,76.86
2017-04-23T06:26:23.152Z,76.95
2017-04-23T06:27:03.700Z,76.95
2017-04-23T06:27:44.279Z,76.39
2017-04-23T06:28:24.879Z,76.2
2017-04-23T06:29:05.564Z,76.42
2017-04-23T06:29:46.092Z,76.32
2017-04-23T06:30:26.675Z,75.95
2017-04-23T06:31:07.281Z,75.95
2017-04-23T06:31:47.873Z,75.85
2017-04-23T06:32:28.449Z,76.14
2017-04-23T06:33:13.622Z,75.47
2017-04-23T06:33:55.197Z,75.57
2017-04-23T06:34:35.797Z,75.19
2017-04-23T06:35:16.328Z,75.38
2017-04-23T06:35:56.903Z,75.47
2017-04-23T06:36:39.564Z,75
2017-04-23T06:37:20.154Z,75.19
2017-04-23T06:38:00.674Z,75.28
2017-04-23T06:38:41.277Z,74.71
2017-04-23T06:39:23.032Z,74.9
2017-04-23T06:40:03.592Z,74.9
2017-04-23T06:40:44.138Z,74.9
2017-04-23T06:41:24.787Z,74.9
2017-04-23T06:42:05.400Z,75.28
2017-04-23T06:42:46.098Z,75
2017-04-23T06:43:26.644Z,75.47
2017-04-23T06:44:08.252Z,75.09
2017-04-23T06:44:48.938Z,74.9
2017-04-23T06:45:29.626Z,74.81
2017-04-23T06:46:10.137Z,74.9
2017-04-23T06:46:51.773Z,75
2017-04-23T06:47:32.364Z,75.09
2017-04-23T06:48:13.016Z,74.71
2017-04-23T06:48:53.672Z,74.9
2017-04-23T06:49:34.324Z,74.33
2017-04-23T06:50:14.916Z,74.43
2017-04-23T06:50:57.513Z,74.05
2017-04-23T06:51:38.169Z,74.33
2017-04-23T06:52:18.821Z,73.86
2017-04-23T06:52:59.474Z,73.86
2017-04-23T06:53:41.151Z,73.76
2017-04-23T06:54:22.841Z,73.52
2017-04-23T06:55:03.480Z,73.04
2017-04-23T06:55:44.009Z,73.23
2017-04-23T06:56:25.644Z,72.85
2017-04-23T06:57:07.301Z,73.23
2017-04-23T06:57:47.852Z,72.95
2017-04-23T06:58:28.387Z,72.47
2017-04-23T06:59:08.993Z,72.28
2017-04-23T06:59:50.661Z,72.38
2017-04-23T07:00:31.323Z,72.47
2017-04-23T07:01:12.027Z,71.9
2017-04-23T07:01:52.590Z,72
2017-04-23T07:02:35.200Z,72
2017-04-23T07:03:15.843Z,72.28
2017-04-23T07:03:57.515Z,72.09
2017-04-23T07:04:38.156Z,72
2017-04-23T07:05:20.854Z,71.71
2017-04-23T07:06:01.505Z,71.9
2017-04-23T07:06:42.156Z,71.62
2017-04-23T07:07:22.803Z,71.52
2017-04-23T07:08:03.461Z,71.71
2017-04-23T07:08:44.110Z,71.04
2017-04-23T07:09:24.767Z,71.14
2017-04-23T07:10:10.332Z,71.18
2017-04-23T07:10:55.798Z,71.08
2017-04-23T07:11:36.447Z,71.37
2017-04-23T07:12:16.978Z,70.79
2017-04-23T07:12:57.633Z,70.61
2017-04-23T07:13:40.278Z,70.51
2017-04-23T07:14:21.964Z,70.38
2017-04-23T07:15:03.636Z,70.51
2017-04-23T07:15:45.349Z,70
2017-04-23T07:16:25.956Z,70
2017-04-23T07:17:08.561Z,70
2017-04-23T07:17:49.161Z,70.13
2017-04-23T07:18:29.736Z,69.91
2017-04-23T07:19:10.265Z,69.56
2017-04-23T07:19:51.897Z,69.53
2017-04-23T07:20:32.485Z,69.81
2017-04-23T07:21:18.803Z,69.24
2017-04-23T07:21:59.337Z,69.56
2017-04-23T07:22:39.969Z,69.05
2017-04-23T07:23:20.638Z,68.9
2017-04-23T07:24:02.302Z,69.46
2017-04-23T07:24:42.955Z,69.46
2017-04-23T07:25:23.593Z,69.18
2017-04-23T07:26:04.248Z,68.9
2017-04-23T07:26:44.903Z,68.61
2017-04-23T07:27:25.560Z,68.61
2017-04-23T07:28:08.190Z,68.8
2017-04-23T07:28:48.759Z,68.42
2017-04-23T07:29:29.426Z,68.33
2017-04-23T07:30:12.066Z,68.33
2017-04-23T07:30:57.280Z,68.52
2017-04-23T07:31:37.802Z,67.85
2017-04-23T07:32:18.403Z,68.52
2017-04-23T07:32:59.079Z,68.42
2017-04-23T07:33:44.609Z,68.23
2017-04-23T07:34:25.248Z,68.13
2017-04-23T07:35:05.915Z,68.33
2017-04-23T07:35:47.592Z,68.61
2017-04-23T07:36:28.264Z,68.42
2017-04-23T07:37:09.928Z,68.42
2017-04-23T07:37:51.521Z,68.42
2017-04-23T07:38:32.122Z,68.33
2017-04-23T07:39:12.653Z,68.33
2017-04-23T07:39:54.303Z,68.23
2017-04-23T07:40:35.889Z,68.8
2017-04-23T07:41:16.475Z,68.71
2017-04-23T07:41:57.014Z,68.48
2017-04-23T07:42:38.655Z,69.24
2017-04-23T07:43:19.308Z,69.24
2017-04-23T07:43:59.941Z,69.34
2017-04-23T07:44:40.578Z,69.15
2017-04-23T07:45:21.235Z,69.24
2017-04-23T07:46:02.909Z,69.15
2017-04-23T07:46:43.588Z,68.86
2017-04-23T07:47:24.417Z,69.24
2017-04-23T07:48:05.100Z,68.96
2017-04-23T07:48:45.735Z,68.67
2017-04-23T07:49:27.460Z,68.77
2017-04-23T07:50:08.075Z,68.39
2017-04-23T07:50:53.698Z,68.29
2017-04-23T07:51:34.321Z,67.82
2017-04-23T07:52:15.979Z,67.53
2017-04-23T07:52:57.607Z,67.63
2017-04-23T07:53:38.118Z,66.87
2017-04-23T07:54:18.742Z,67.72
2017-04-23T07:54:59.361Z,67.53
2017-04-23T07:55:39.901Z,67.44
2017-04-23T07:56:20.480Z,67.63
2017-04-23T07:57:02.148Z,67.53
2017-04-23T07:57:42.899Z,67.34
2017-04-23T07:58:25.551Z,67.34
2017-04-23T07:59:06.200Z,67.25
2017-04-23T07:59:46.809Z,67.25
2017-04-23T08:00:27.351Z,66.87
2017-04-23T08:01:08.039Z,66.39
2017-04-23T08:01:48.725Z,66.67
2017-04-23T08:02:29.317Z,66.11
2017-04-23T08:03:09.968Z,66.3
2017-04-23T08:03:50.632Z,66.3
2017-04-23T08:04:32.300Z,66.39
2017-04-23T08:05:14.993Z,66.05
2017-04-23T08:06:02.302Z,65.57
2017-04-23T08:06:43.984Z,65.86
2017-04-23T08:07:24.708Z,65.09
2017-04-23T08:08:05.402Z,65.47
2017-04-23T08:08:46.037Z,65.28
2017-04-23T08:09:26.701Z,65.57
2017-04-23T08:10:07.354Z,65.09
2017-04-23T08:10:47.998Z,65.28
2017-04-23T08:11:29.581Z,65.38
2017-04-23T08:12:10.233Z,64.9
2017-04-23T08:12:50.892Z,65.19
2017-04-23T08:13:31.406Z,65.09
2017-04-23T08:14:13.018Z,64.72
2017-04-23T08:14:54.599Z,64.62
2017-04-23T08:15:36.281Z,64.34
2017-04-23T08:16:16.958Z,64.34
2017-04-23T08:16:58.645Z,64.05
2017-04-23T08:17:44.195Z,63.79
2017-04-23T08:18:25.862Z,63.51
2017-04-23T08:19:06.594Z,63.13
2017-04-23T08:19:47.269Z,62.56
2017-04-23T08:20:28.972Z,62.85
2017-04-23T08:21:09.643Z,62.56
2017-04-23T08:21:51.338Z,62.37
2017-04-23T08:22:31.950Z,61.99
2017-04-23T08:23:12.620Z,61.8
2017-04-23T08:24:03.860Z,61.8
2017-04-23T08:24:44.362Z,61.35
2017-04-23T08:25:24.972Z,61.26
2017-04-23T08:26:05.567Z,60.5
2017-04-23T08:26:46.277Z,60.21
2017-04-23T08:27:26.781Z,60.31
2017-04-23T08:28:07.393Z,60.02
2017-04-23T08:28:48.060Z,59.45
2017-04-23T08:29:29.716Z,59.93
2017-04-23T08:30:10.313Z,59.55
2017-04-23T08:30:50.930Z,59.39
2017-04-23T08:31:31.582Z,59.77
2017-04-23T08:32:17.139Z,58.98
2017-04-23T08:32:57.791Z,58.91
2017-04-23T08:33:38.502Z,59.36
2017-04-23T08:34:19.107Z,58.53
2017-04-23T08:34:59.749Z,58.62
2017-04-23T08:35:40.420Z,58.15
2017-04-23T08:36:23.105Z,58.34
2017-04-23T08:37:03.785Z,58.25
2017-04-23T08:37:44.417Z,57.58
2017-04-23T08:38:25.099Z,57.77
2017-04-23T08:39:06.817Z,57.77
2017-04-23T08:39:47.369Z,57.96
2017-04-23T08:40:28.997Z,57.87
2017-04-23T08:41:22.467Z,57.39
2017-04-23T08:42:07.882Z,57.1
2017-04-23T08:42:48.394Z,56.82
2017-04-23T08:43:30.018Z,56.15
2017-04-23T08:44:15.677Z,56.34
2017-04-23T08:44:56.226Z,56.24
2017-04-23T08:45:37.923Z,56.53
2017-04-23T08:46:23.171Z,56.24
2017-04-23T08:47:04.861Z,56.34
2017-04-23T08:48:01.169Z,56.05
2017-04-23T08:48:48.710Z,55.77
2017-04-23T08:49:29.326Z,55.68
2017-04-23T08:50:10.003Z,55.39
2017-04-23T08:50:52.698Z,55.58